sensor_id;sensor_type;location;lat;lon;timestamp;P1;durP1;ratioP1;P2;durP2;ratioP2
66143;SDS011;52947;50.842;6.084;2022-10-31T00:01:25;11.73;;;7.10;;
66143;SDS011;52947;50.842;6.084;2022-10-31T00:03:54;17.20;;;8.15;;
66143;SDS011;52947;50.842;6.084;2022-10-31T00:06:23;12.75;;;7.55;;
66143;SDS011;52947;50.842;6.084;2022-10-31T00:08:52;17.67;;;7.40;;
66143;SDS011;52947;50.842;6.084;2022-10-31T00:11:21;17.33;;;8.00;;
66143;SDS011;52947;50.842;6.084;2022-10-31T00:13:49;16.47;;;7.83;;
66143;SDS011;52947;50.842;6.084;2022-10-31T00:16:19;21.25;;;8.05;;
66143;SDS011;52947;50.842;6.084;2022-10-31T00:18:48;18.25;;;8.55;;
66143;SDS011;52947;50.842;6.084;2022-10-31T00:21:16;28.57;;;9.87;;
66143;SDS011;52947;50.842;6.084;2022-10-31T00:23:44;22.10;;;8.82;;
66143;SDS011;52947;50.842;6.084;2022-10-31T00:26:12;20.45;;;9.50;;
66143;SDS011;52947;50.842;6.084;2022-10-31T00:28:41;16.73;;;8.20;;
66143;SDS011;52947;50.842;6.084;2022-10-31T00:31:10;19.08;;;8.32;;
66143;SDS011;52947;50.842;6.084;2022-10-31T00:33:40;18.02;;;9.10;;
66143;SDS011;52947;50.842;6.084;2022-10-31T00:36:10;15.80;;;8.02;;
66143;SDS011;52947;50.842;6.084;2022-10-31T00:38:39;20.48;;;8.60;;
66143;SDS011;52947;50.842;6.084;2022-10-31T00:41:08;16.80;;;8.30;;
66143;SDS011;52947;50.842;6.084;2022-10-31T00:43:39;21.13;;;8.95;;
66143;SDS011;52947;50.842;6.084;2022-10-31T00:46:07;17.30;;;8.60;;
66143;SDS011;52947;50.842;6.084;2022-10-31T00:48:35;17.08;;;8.32;;
66143;SDS011;52947;50.842;6.084;2022-10-31T00:51:04;20.05;;;8.82;;
66143;SDS011;52947;50.842;6.084;2022-10-31T00:53:32;18.65;;;8.52;;
66143;SDS011;52947;50.842;6.084;2022-10-31T00:56:00;18.00;;;8.38;;
66143;SDS011;52947;50.842;6.084;2022-10-31T00:58:28;17.60;;;8.25;;
66143;SDS011;52947;50.842;6.084;2022-10-31T01:00:56;20.63;;;9.20;;
66143;SDS011;52947;50.842;6.084;2022-10-31T01:03:25;19.48;;;8.88;;
66143;SDS011;52947;50.842;6.084;2022-10-31T01:05:58;18.70;;;7.85;;
66143;SDS011;52947;50.842;6.084;2022-10-31T01:08:28;15.50;;;8.35;;
66143;SDS011;52947;50.842;6.084;2022-10-31T01:11:10;15.00;;;8.40;;
66143;SDS011;52947;50.842;6.084;2022-10-31T01:13:39;14.75;;;8.23;;
66143;SDS011;52947;50.842;6.084;2022-10-31T01:16:08;21.30;;;8.45;;
66143;SDS011;52947;50.842;6.084;2022-10-31T01:18:38;22.48;;;8.75;;
66143;SDS011;52947;50.842;6.084;2022-10-31T01:23:37;17.23;;;7.43;;
66143;SDS011;52947;50.842;6.084;2022-10-31T01:26:06;15.02;;;7.43;;
66143;SDS011;52947;50.842;6.084;2022-10-31T01:28:36;17.98;;;8.68;;
66143;SDS011;52947;50.842;6.084;2022-10-31T01:31:05;18.85;;;7.57;;
66143;SDS011;52947;50.842;6.084;2022-10-31T01:33:35;16.58;;;8.52;;
66143;SDS011;52947;50.842;6.084;2022-10-31T01:36:10;16.40;;;6.83;;
66143;SDS011;52947;50.842;6.084;2022-10-31T01:38:41;12.98;;;7.47;;
66143;SDS011;52947;50.842;6.084;2022-10-31T01:41:08;13.82;;;7.78;;
66143;SDS011;52947;50.842;6.084;2022-10-31T01:43:41;15.55;;;7.50;;
66143;SDS011;52947;50.842;6.084;2022-10-31T01:46:14;13.82;;;7.32;;
66143;SDS011;52947;50.842;6.084;2022-10-31T01:48:45;19.55;;;7.70;;
66143;SDS011;52947;50.842;6.084;2022-10-31T01:51:13;12.93;;;7.47;;
66143;SDS011;52947;50.842;6.084;2022-10-31T01:53:46;17.05;;;7.28;;
66143;SDS011;52947;50.842;6.084;2022-10-31T01:56:14;21.02;;;7.32;;
66143;SDS011;52947;50.842;6.084;2022-10-31T01:58:44;15.45;;;6.90;;
66143;SDS011;52947;50.842;6.084;2022-10-31T02:01:15;18.58;;;6.40;;
66143;SDS011;52947;50.842;6.084;2022-10-31T02:03:44;14.73;;;6.65;;
66143;SDS011;52947;50.842;6.084;2022-10-31T02:06:18;12.63;;;6.65;;
66143;SDS011;52947;50.842;6.084;2022-10-31T02:08:51;15.10;;;7.00;;
66143;SDS011;52947;50.842;6.084;2022-10-31T02:11:20;12.95;;;6.07;;
66143;SDS011;52947;50.842;6.084;2022-10-31T02:13:48;19.15;;;6.43;;
66143;SDS011;52947;50.842;6.084;2022-10-31T02:16:17;15.70;;;6.40;;
66143;SDS011;52947;50.842;6.084;2022-10-31T02:18:45;13.77;;;6.75;;
66143;SDS011;52947;50.842;6.084;2022-10-31T02:21:14;12.55;;;6.00;;
66143;SDS011;52947;50.842;6.084;2022-10-31T02:23:54;10.98;;;6.03;;
66143;SDS011;52947;50.842;6.084;2022-10-31T02:26:59;17.23;;;5.70;;
66143;SDS011;52947;50.842;6.084;2022-10-31T02:32:33;14.65;;;5.95;;
66143;SDS011;52947;50.842;6.084;2022-10-31T02:35:13;10.60;;;5.32;;
66143;SDS011;52947;50.842;6.084;2022-10-31T02:37:49;12.18;;;5.82;;
66143;SDS011;52947;50.842;6.084;2022-10-31T02:40:25;19.92;;;6.20;;
66143;SDS011;52947;50.842;6.084;2022-10-31T02:43:21;14.40;;;6.80;;
66143;SDS011;52947;50.842;6.084;2022-10-31T02:45:54;11.82;;;5.65;;
66143;SDS011;52947;50.842;6.084;2022-10-31T02:48:29;19.17;;;6.40;;
66143;SDS011;52947;50.842;6.084;2022-10-31T02:51:02;12.40;;;6.18;;
66143;SDS011;52947;50.842;6.084;2022-10-31T02:53:31;13.32;;;5.80;;
66143;SDS011;52947;50.842;6.084;2022-10-31T02:56:02;18.95;;;5.63;;
66143;SDS011;52947;50.842;6.084;2022-10-31T02:58:34;16.83;;;6.40;;
66143;SDS011;52947;50.842;6.084;2022-10-31T03:01:11;18.45;;;5.70;;
66143;SDS011;52947;50.842;6.084;2022-10-31T03:03:56;13.70;;;5.85;;
66143;SDS011;52947;50.842;6.084;2022-10-31T03:06:35;12.30;;;5.50;;
66143;SDS011;52947;50.842;6.084;2022-10-31T03:09:10;18.35;;;6.10;;
66143;SDS011;52947;50.842;6.084;2022-10-31T03:11:43;11.40;;;5.95;;
66143;SDS011;52947;50.842;6.084;2022-10-31T03:14:17;14.95;;;5.78;;
66143;SDS011;52947;50.842;6.084;2022-10-31T03:16:56;18.77;;;7.20;;
66143;SDS011;52947;50.842;6.084;2022-10-31T03:19:33;15.25;;;6.85;;
66143;SDS011;52947;50.842;6.084;2022-10-31T03:22:04;16.48;;;6.50;;
66143;SDS011;52947;50.842;6.084;2022-10-31T03:24:37;13.65;;;6.50;;
66143;SDS011;52947;50.842;6.084;2022-10-31T03:27:07;12.95;;;6.72;;
66143;SDS011;52947;50.842;6.084;2022-10-31T03:29:37;16.90;;;7.18;;
66143;SDS011;52947;50.842;6.084;2022-10-31T03:32:07;10.05;;;5.97;;
66143;SDS011;52947;50.842;6.084;2022-10-31T03:34:39;12.52;;;6.03;;
66143;SDS011;52947;50.842;6.084;2022-10-31T03:37:10;12.07;;;5.88;;
66143;SDS011;52947;50.842;6.084;2022-10-31T03:39:41;19.88;;;6.63;;
66143;SDS011;52947;50.842;6.084;2022-10-31T03:42:11;17.38;;;6.97;;
66143;SDS011;52947;50.842;6.084;2022-10-31T03:44:42;18.83;;;6.55;;
66143;SDS011;52947;50.842;6.084;2022-10-31T03:47:13;16.77;;;7.70;;
66143;SDS011;52947;50.842;6.084;2022-10-31T03:49:43;20.63;;;7.20;;
66143;SDS011;52947;50.842;6.084;2022-10-31T03:52:13;14.88;;;6.18;;
66143;SDS011;52947;50.842;6.084;2022-10-31T03:54:51;14.70;;;6.78;;
66143;SDS011;52947;50.842;6.084;2022-10-31T03:57:24;15.98;;;6.53;;
66143;SDS011;52947;50.842;6.084;2022-10-31T03:59:55;13.43;;;6.63;;
66143;SDS011;52947;50.842;6.084;2022-10-31T04:02:31;23.02;;;7.68;;
66143;SDS011;52947;50.842;6.084;2022-10-31T04:05:04;14.15;;;6.35;;
66143;SDS011;52947;50.842;6.084;2022-10-31T04:07:33;16.38;;;6.93;;
66143;SDS011;52947;50.842;6.084;2022-10-31T04:10:07;14.43;;;6.47;;
66143;SDS011;52947;50.842;6.084;2022-10-31T04:12:41;13.35;;;6.13;;
66143;SDS011;52947;50.842;6.084;2022-10-31T04:15:23;16.98;;;6.53;;
66143;SDS011;52947;50.842;6.084;2022-10-31T04:17:53;15.15;;;6.72;;
66143;SDS011;52947;50.842;6.084;2022-10-31T04:20:31;14.95;;;6.53;;
66143;SDS011;52947;50.842;6.084;2022-10-31T04:23:00;19.17;;;7.40;;
66143;SDS011;52947;50.842;6.084;2022-10-31T04:25:28;12.70;;;6.22;;
66143;SDS011;52947;50.842;6.084;2022-10-31T04:27:57;19.92;;;7.55;;
66143;SDS011;52947;50.842;6.084;2022-10-31T04:30:26;14.87;;;6.80;;
66143;SDS011;52947;50.842;6.084;2022-10-31T04:32:54;13.82;;;6.50;;
66143;SDS011;52947;50.842;6.084;2022-10-31T04:35:22;18.13;;;6.60;;
66143;SDS011;52947;50.842;6.084;2022-10-31T04:37:52;12.57;;;5.90;;
66143;SDS011;52947;50.842;6.084;2022-10-31T04:40:20;12.63;;;6.22;;
66143;SDS011;52947;50.842;6.084;2022-10-31T04:42:54;11.55;;;5.53;;
66143;SDS011;52947;50.842;6.084;2022-10-31T04:45:22;14.95;;;6.20;;
66143;SDS011;52947;50.842;6.084;2022-10-31T04:47:51;12.63;;;6.18;;
66143;SDS011;52947;50.842;6.084;2022-10-31T04:50:19;13.32;;;6.35;;
66143;SDS011;52947;50.842;6.084;2022-10-31T04:52:47;15.10;;;6.60;;
66143;SDS011;52947;50.842;6.084;2022-10-31T04:55:20;19.45;;;7.25;;
66143;SDS011;52947;50.842;6.084;2022-10-31T04:58:07;12.82;;;6.68;;
66143;SDS011;52947;50.842;6.084;2022-10-31T05:00:35;16.63;;;6.82;;
66143;SDS011;52947;50.842;6.084;2022-10-31T05:03:03;13.07;;;6.90;;
66143;SDS011;52947;50.842;6.084;2022-10-31T05:05:31;13.25;;;5.90;;
66143;SDS011;52947;50.842;6.084;2022-10-31T05:08:02;19.55;;;7.13;;
66143;SDS011;52947;50.842;6.084;2022-10-31T05:10:32;16.25;;;6.45;;
66143;SDS011;52947;50.842;6.084;2022-10-31T05:13:02;12.73;;;6.38;;
66143;SDS011;52947;50.842;6.084;2022-10-31T05:15:50;9.90;;;5.65;;
66143;SDS011;52947;50.842;6.084;2022-10-31T05:18:36;13.90;;;7.93;;
66143;SDS011;52947;50.842;6.084;2022-10-31T05:21:22;13.30;;;6.70;;
66143;SDS011;52947;50.842;6.084;2022-10-31T05:23:53;12.52;;;6.47;;
66143;SDS011;52947;50.842;6.084;2022-10-31T05:26:24;16.45;;;7.45;;
66143;SDS011;52947;50.842;6.084;2022-10-31T05:28:53;17.58;;;6.65;;
66143;SDS011;52947;50.842;6.084;2022-10-31T05:31:22;16.15;;;8.05;;
66143;SDS011;52947;50.842;6.084;2022-10-31T05:33:51;17.38;;;7.53;;
66143;SDS011;52947;50.842;6.084;2022-10-31T05:36:19;18.85;;;7.22;;
66143;SDS011;52947;50.842;6.084;2022-10-31T05:38:51;20.70;;;7.40;;
66143;SDS011;52947;50.842;6.084;2022-10-31T05:41:35;20.02;;;9.40;;
66143;SDS011;52947;50.842;6.084;2022-10-31T05:44:07;21.60;;;8.20;;
66143;SDS011;52947;50.842;6.084;2022-10-31T05:46:48;18.75;;;7.93;;
66143;SDS011;52947;50.842;6.084;2022-10-31T05:49:42;17.02;;;8.05;;
66143;SDS011;52947;50.842;6.084;2022-10-31T05:52:28;18.80;;;8.02;;
66143;SDS011;52947;50.842;6.084;2022-10-31T05:55:03;25.73;;;9.70;;
66143;SDS011;52947;50.842;6.084;2022-10-31T05:57:33;19.40;;;9.32;;
66143;SDS011;52947;50.842;6.084;2022-10-31T06:00:02;25.25;;;9.23;;
66143;SDS011;52947;50.842;6.084;2022-10-31T06:02:46;15.15;;;8.65;;
66143;SDS011;52947;50.842;6.084;2022-10-31T06:05:22;17.98;;;9.73;;
66143;SDS011;52947;50.842;6.084;2022-10-31T06:07:51;17.65;;;9.45;;
66143;SDS011;52947;50.842;6.084;2022-10-31T06:10:19;21.42;;;9.05;;
66143;SDS011;52947;50.842;6.084;2022-10-31T06:12:53;19.38;;;8.98;;
66143;SDS011;52947;50.842;6.084;2022-10-31T06:15:28;20.60;;;9.23;;
66143;SDS011;52947;50.842;6.084;2022-10-31T06:18:00;31.25;;;10.25;;
66143;SDS011;52947;50.842;6.084;2022-10-31T06:20:35;21.30;;;9.82;;
66143;SDS011;52947;50.842;6.084;2022-10-31T06:23:04;19.48;;;9.93;;
66143;SDS011;52947;50.842;6.084;2022-10-31T06:28:04;21.92;;;9.95;;
66143;SDS011;52947;50.842;6.084;2022-10-31T06:30:54;27.10;;;11.82;;
66143;SDS011;52947;50.842;6.084;2022-10-31T06:33:22;22.40;;;11.10;;
66143;SDS011;52947;50.842;6.084;2022-10-31T06:35:55;23.23;;;11.40;;
66143;SDS011;52947;50.842;6.084;2022-10-31T06:38:24;24.95;;;11.13;;
66143;SDS011;52947;50.842;6.084;2022-10-31T06:40:53;30.17;;;11.45;;
66143;SDS011;52947;50.842;6.084;2022-10-31T06:43:26;22.85;;;10.90;;
66143;SDS011;52947;50.842;6.084;2022-10-31T06:46:16;26.80;;;10.35;;
66143;SDS011;52947;50.842;6.084;2022-10-31T06:48:59;19.40;;;11.13;;
66143;SDS011;52947;50.842;6.084;2022-10-31T06:51:41;20.50;;;10.60;;
66143;SDS011;52947;50.842;6.084;2022-10-31T06:54:09;23.13;;;10.77;;
66143;SDS011;52947;50.842;6.084;2022-10-31T06:56:37;23.00;;;10.50;;
66143;SDS011;52947;50.842;6.084;2022-10-31T06:59:06;20.38;;;10.38;;
66143;SDS011;52947;50.842;6.084;2022-10-31T07:01:54;22.80;;;10.52;;
66143;SDS011;52947;50.842;6.084;2022-10-31T07:04:22;25.15;;;10.60;;
66143;SDS011;52947;50.842;6.084;2022-10-31T07:06:50;21.77;;;9.57;;
66143;SDS011;52947;50.842;6.084;2022-10-31T07:09:19;26.17;;;11.35;;
66143;SDS011;52947;50.842;6.084;2022-10-31T07:11:47;18.48;;;9.60;;
66143;SDS011;52947;50.842;6.084;2022-10-31T07:14:17;20.10;;;8.98;;
66143;SDS011;52947;50.842;6.084;2022-10-31T07:19:17;18.70;;;10.18;;
66143;SDS011;52947;50.842;6.084;2022-10-31T07:21:46;20.20;;;10.63;;
66143;SDS011;52947;50.842;6.084;2022-10-31T07:24:14;23.98;;;10.80;;
66143;SDS011;52947;50.842;6.084;2022-10-31T07:26:42;21.35;;;9.45;;
66143;SDS011;52947;50.842;6.084;2022-10-31T07:29:13;20.23;;;9.23;;
66143;SDS011;52947;50.842;6.084;2022-10-31T07:31:42;20.13;;;9.82;;
66143;SDS011;52947;50.842;6.084;2022-10-31T07:34:16;18.90;;;8.88;;
66143;SDS011;52947;50.842;6.084;2022-10-31T07:36:53;22.00;;;9.38;;
66143;SDS011;52947;50.842;6.084;2022-10-31T07:39:21;19.13;;;8.90;;
66143;SDS011;52947;50.842;6.084;2022-10-31T07:41:49;19.33;;;10.23;;
66143;SDS011;52947;50.842;6.084;2022-10-31T07:44:18;19.17;;;9.52;;
66143;SDS011;52947;50.842;6.084;2022-10-31T07:46:53;20.60;;;9.70;;
66143;SDS011;52947;50.842;6.084;2022-10-31T07:49:39;30.40;;;12.10;;
66143;SDS011;52947;50.842;6.084;2022-10-31T07:52:26;18.90;;;9.43;;
66143;SDS011;52947;50.842;6.084;2022-10-31T07:55:12;23.30;;;11.05;;
66143;SDS011;52947;50.842;6.084;2022-10-31T07:57:45;35.80;;;12.70;;
66143;SDS011;52947;50.842;6.084;2022-10-31T08:00:13;23.48;;;11.75;;
66143;SDS011;52947;50.842;6.084;2022-10-31T08:02:42;27.90;;;11.23;;
66143;SDS011;52947;50.842;6.084;2022-10-31T08:05:43;29.05;;;13.40;;
66143;SDS011;52947;50.842;6.084;2022-10-31T08:08:26;26.90;;;11.98;;
66143;SDS011;52947;50.842;6.084;2022-10-31T08:11:01;28.70;;;11.88;;
66143;SDS011;52947;50.842;6.084;2022-10-31T08:13:29;24.17;;;12.32;;
66143;SDS011;52947;50.842;6.084;2022-10-31T08:15:57;26.48;;;11.82;;
66143;SDS011;52947;50.842;6.084;2022-10-31T08:18:34;20.77;;;12.15;;
66143;SDS011;52947;50.842;6.084;2022-10-31T08:21:06;25.20;;;13.25;;
66143;SDS011;52947;50.842;6.084;2022-10-31T08:23:34;28.83;;;12.60;;
66143;SDS011;52947;50.842;6.084;2022-10-31T08:26:02;25.75;;;11.38;;
66143;SDS011;52947;50.842;6.084;2022-10-31T08:28:32;28.45;;;12.25;;
66143;SDS011;52947;50.842;6.084;2022-10-31T08:31:01;22.63;;;12.32;;
66143;SDS011;52947;50.842;6.084;2022-10-31T08:33:39;29.92;;;12.48;;
66143;SDS011;52947;50.842;6.084;2022-10-31T08:36:36;22.20;;;11.73;;
66143;SDS011;52947;50.842;6.084;2022-10-31T08:39:36;26.48;;;12.63;;
66143;SDS011;52947;50.842;6.084;2022-10-31T08:42:04;23.33;;;11.85;;
66143;SDS011;52947;50.842;6.084;2022-10-31T08:44:32;22.98;;;11.50;;
66143;SDS011;52947;50.842;6.084;2022-10-31T08:47:00;27.85;;;13.38;;
66143;SDS011;52947;50.842;6.084;2022-10-31T08:49:32;30.98;;;13.65;;
66143;SDS011;52947;50.842;6.084;2022-10-31T08:52:01;21.92;;;12.18;;
66143;SDS011;52947;50.842;6.084;2022-10-31T08:54:34;28.45;;;13.15;;
66143;SDS011;52947;50.842;6.084;2022-10-31T08:57:34;24.35;;;12.15;;
66143;SDS011;52947;50.842;6.084;2022-10-31T09:00:02;27.80;;;13.48;;
66143;SDS011;52947;50.842;6.084;2022-10-31T09:05:28;31.58;;;14.70;;
66143;SDS011;52947;50.842;6.084;2022-10-31T09:07:57;24.83;;;13.38;;
66143;SDS011;52947;50.842;6.084;2022-10-31T09:10:27;24.15;;;12.77;;
66143;SDS011;52947;50.842;6.084;2022-10-31T09:15:26;29.60;;;14.05;;
66143;SDS011;52947;50.842;6.084;2022-10-31T09:18:09;33.58;;;13.15;;
66143;SDS011;52947;50.842;6.084;2022-10-31T09:20:59;26.77;;;12.88;;
66143;SDS011;52947;50.842;6.084;2022-10-31T09:23:29;23.05;;;11.98;;
66143;SDS011;52947;50.842;6.084;2022-10-31T09:25:59;32.33;;;13.25;;
66143;SDS011;52947;50.842;6.084;2022-10-31T09:28:35;25.67;;;12.18;;
66143;SDS011;52947;50.842;6.084;2022-10-31T09:31:13;25.45;;;11.25;;
66143;SDS011;52947;50.842;6.084;2022-10-31T09:34:04;22.58;;;10.40;;
66143;SDS011;52947;50.842;6.084;2022-10-31T09:36:36;15.98;;;9.23;;
66143;SDS011;52947;50.842;6.084;2022-10-31T09:39:13;23.60;;;10.30;;
66143;SDS011;52947;50.842;6.084;2022-10-31T09:41:48;22.02;;;10.52;;
66143;SDS011;52947;50.842;6.084;2022-10-31T09:44:41;27.98;;;10.77;;
66143;SDS011;52947;50.842;6.084;2022-10-31T09:47:26;22.17;;;9.30;;
66143;SDS011;52947;50.842;6.084;2022-10-31T09:50:33;22.92;;;9.30;;
66143;SDS011;52947;50.842;6.084;2022-10-31T09:53:32;25.23;;;11.02;;
66143;SDS011;52947;50.842;6.084;2022-10-31T09:56:07;23.55;;;10.20;;
66143;SDS011;52947;50.842;6.084;2022-10-31T09:58:39;21.80;;;10.00;;
66143;SDS011;52947;50.842;6.084;2022-10-31T10:01:14;14.27;;;8.68;;
66143;SDS011;52947;50.842;6.084;2022-10-31T10:04:03;19.13;;;9.93;;
66143;SDS011;52947;50.842;6.084;2022-10-31T10:06:56;24.45;;;8.63;;
66143;SDS011;52947;50.842;6.084;2022-10-31T10:09:55;17.97;;;8.07;;
66143;SDS011;52947;50.842;6.084;2022-10-31T10:15:39;16.98;;;8.07;;
66143;SDS011;52947;50.842;6.084;2022-10-31T10:18:28;14.57;;;7.50;;
66143;SDS011;52947;50.842;6.084;2022-10-31T10:21:09;20.65;;;6.75;;
66143;SDS011;52947;50.842;6.084;2022-10-31T10:23:47;15.13;;;6.65;;
66143;SDS011;52947;50.842;6.084;2022-10-31T10:26:25;21.30;;;7.43;;
66143;SDS011;52947;50.842;6.084;2022-10-31T10:29:03;18.95;;;7.00;;
66143;SDS011;52947;50.842;6.084;2022-10-31T10:31:45;16.50;;;6.82;;
66143;SDS011;52947;50.842;6.084;2022-10-31T10:34:17;17.83;;;6.88;;
66143;SDS011;52947;50.842;6.084;2022-10-31T10:36:50;14.13;;;6.38;;
66143;SDS011;52947;50.842;6.084;2022-10-31T10:39:22;18.20;;;7.05;;
66143;SDS011;52947;50.842;6.084;2022-10-31T10:41:54;15.85;;;6.60;;
66143;SDS011;52947;50.842;6.084;2022-10-31T10:44:43;18.67;;;6.32;;
66143;SDS011;52947;50.842;6.084;2022-10-31T10:50:07;16.17;;;5.38;;
66143;SDS011;52947;50.842;6.084;2022-10-31T10:52:45;19.92;;;6.85;;
66143;SDS011;52947;50.842;6.084;2022-10-31T10:55:23;14.05;;;6.50;;
66143;SDS011;52947;50.842;6.084;2022-10-31T10:58:01;15.40;;;6.13;;
66143;SDS011;52947;50.842;6.084;2022-10-31T11:00:31;13.45;;;5.90;;
66143;SDS011;52947;50.842;6.084;2022-10-31T11:03:02;16.67;;;5.97;;
66143;SDS011;52947;50.842;6.084;2022-10-31T11:05:33;11.90;;;5.60;;
66143;SDS011;52947;50.842;6.084;2022-10-31T11:08:03;13.70;;;5.43;;
66143;SDS011;52947;50.842;6.084;2022-10-31T11:13:03;17.10;;;6.70;;
66143;SDS011;52947;50.842;6.084;2022-10-31T11:15:35;12.55;;;5.72;;
66143;SDS011;52947;50.842;6.084;2022-10-31T11:18:05;15.10;;;5.97;;
66143;SDS011;52947;50.842;6.084;2022-10-31T11:20:34;16.15;;;6.35;;
66143;SDS011;52947;50.842;6.084;2022-10-31T11:23:04;19.33;;;7.75;;
66143;SDS011;52947;50.842;6.084;2022-10-31T11:25:50;14.35;;;6.93;;
66143;SDS011;52947;50.842;6.084;2022-10-31T11:28:21;24.40;;;6.40;;
66143;SDS011;52947;50.842;6.084;2022-10-31T11:30:50;17.08;;;6.60;;
66143;SDS011;52947;50.842;6.084;2022-10-31T11:33:22;16.17;;;6.18;;
66143;SDS011;52947;50.842;6.084;2022-10-31T11:35:56;17.90;;;5.72;;
66143;SDS011;52947;50.842;6.084;2022-10-31T11:38:26;12.77;;;5.22;;
66143;SDS011;52947;50.842;6.084;2022-10-31T11:41:02;13.48;;;5.70;;
66143;SDS011;52947;50.842;6.084;2022-10-31T11:43:38;14.45;;;5.57;;
66143;SDS011;52947;50.842;6.084;2022-10-31T11:46:09;11.68;;;5.90;;
66143;SDS011;52947;50.842;6.084;2022-10-31T11:48:39;19.00;;;5.80;;
66143;SDS011;52947;50.842;6.084;2022-10-31T11:51:13;15.82;;;5.82;;
66143;SDS011;52947;50.842;6.084;2022-10-31T11:53:50;11.75;;;5.80;;
66143;SDS011;52947;50.842;6.084;2022-10-31T11:56:25;10.82;;;5.55;;
66143;SDS011;52947;50.842;6.084;2022-10-31T11:58:58;13.73;;;5.25;;
66143;SDS011;52947;50.842;6.084;2022-10-31T12:01:30;12.55;;;5.28;;
66143;SDS011;52947;50.842;6.084;2022-10-31T12:04:02;14.90;;;5.18;;
66143;SDS011;52947;50.842;6.084;2022-10-31T12:06:34;11.88;;;5.13;;
66143;SDS011;52947;50.842;6.084;2022-10-31T12:09:08;20.33;;;5.18;;
66143;SDS011;52947;50.842;6.084;2022-10-31T12:11:46;15.85;;;4.75;;
66143;SDS011;52947;50.842;6.084;2022-10-31T12:14:28;15.93;;;5.10;;
66143;SDS011;52947;50.842;6.084;2022-10-31T12:17:04;11.07;;;4.00;;
66143;SDS011;52947;50.842;6.084;2022-10-31T12:19:42;13.48;;;4.45;;
66143;SDS011;52947;50.842;6.084;2022-10-31T12:22:23;10.95;;;4.88;;
66143;SDS011;52947;50.842;6.084;2022-10-31T12:28:00;16.02;;;4.82;;
66143;SDS011;52947;50.842;6.084;2022-10-31T12:30:46;18.10;;;4.53;;
66143;SDS011;52947;50.842;6.084;2022-10-31T12:33:37;12.30;;;4.45;;
66143;SDS011;52947;50.842;6.084;2022-10-31T12:36:19;15.02;;;4.97;;
66143;SDS011;52947;50.842;6.084;2022-10-31T12:39:02;13.40;;;5.10;;
66143;SDS011;52947;50.842;6.084;2022-10-31T12:41:56;10.65;;;3.90;;
66143;SDS011;52947;50.842;6.084;2022-10-31T12:44:41;14.85;;;4.55;;
66143;SDS011;52947;50.842;6.084;2022-10-31T12:47:33;11.70;;;4.05;;
66143;SDS011;52947;50.842;6.084;2022-10-31T12:50:16;12.77;;;4.18;;
66143;SDS011;52947;50.842;6.084;2022-10-31T12:52:56;15.98;;;4.35;;
66143;SDS011;52947;50.842;6.084;2022-10-31T12:55:37;16.60;;;4.47;;
66143;SDS011;52947;50.842;6.084;2022-10-31T12:58:12;15.77;;;4.68;;
66143;SDS011;52947;50.842;6.084;2022-10-31T13:00:45;16.55;;;4.25;;
66143;SDS011;52947;50.842;6.084;2022-10-31T13:03:22;14.10;;;4.68;;
66143;SDS011;52947;50.842;6.084;2022-10-31T13:05:54;11.02;;;4.25;;
66143;SDS011;52947;50.842;6.084;2022-10-31T13:08:26;13.85;;;4.18;;
66143;SDS011;52947;50.842;6.084;2022-10-31T13:11:00;18.90;;;4.10;;
66143;SDS011;52947;50.842;6.084;2022-10-31T13:13:36;14.73;;;4.32;;
66143;SDS011;52947;50.842;6.084;2022-10-31T13:16:09;12.95;;;4.10;;
66143;SDS011;52947;50.842;6.084;2022-10-31T13:18:44;11.88;;;4.15;;
66143;SDS011;52947;50.842;6.084;2022-10-31T13:21:17;13.60;;;4.07;;
66143;SDS011;52947;50.842;6.084;2022-10-31T13:23:49;13.18;;;3.70;;
66143;SDS011;52947;50.842;6.084;2022-10-31T13:26:20;13.25;;;3.65;;
66143;SDS011;52947;50.842;6.084;2022-10-31T13:28:52;10.05;;;3.97;;
66143;SDS011;52947;50.842;6.084;2022-10-31T13:31:27;9.23;;;3.97;;
66143;SDS011;52947;50.842;6.084;2022-10-31T13:33:57;11.63;;;4.30;;
66143;SDS011;52947;50.842;6.084;2022-10-31T13:36:30;13.05;;;3.80;;
66143;SDS011;52947;50.842;6.084;2022-10-31T13:39:09;12.35;;;4.60;;
66143;SDS011;52947;50.842;6.084;2022-10-31T13:41:48;14.32;;;4.82;;
66143;SDS011;52947;50.842;6.084;2022-10-31T13:44:21;15.75;;;4.57;;
66143;SDS011;52947;50.842;6.084;2022-10-31T13:46:52;16.02;;;5.28;;
66143;SDS011;52947;50.842;6.084;2022-10-31T13:49:26;15.05;;;5.85;;
66143;SDS011;52947;50.842;6.084;2022-10-31T13:52:07;20.70;;;5.15;;
66143;SDS011;52947;50.842;6.084;2022-10-31T13:54:41;16.92;;;5.18;;
66143;SDS011;52947;50.842;6.084;2022-10-31T13:57:18;17.48;;;5.47;;
66143;SDS011;52947;50.842;6.084;2022-10-31T13:59:50;18.00;;;5.07;;
66143;SDS011;52947;50.842;6.084;2022-10-31T14:02:23;17.02;;;5.25;;
66143;SDS011;52947;50.842;6.084;2022-10-31T14:04:56;11.18;;;5.07;;
66143;SDS011;52947;50.842;6.084;2022-10-31T14:07:26;16.05;;;4.60;;
66143;SDS011;52947;50.842;6.084;2022-10-31T14:09:56;15.43;;;4.97;;
66143;SDS011;52947;50.842;6.084;2022-10-31T14:12:29;12.20;;;5.20;;
66143;SDS011;52947;50.842;6.084;2022-10-31T14:15:00;18.08;;;4.85;;
66143;SDS011;52947;50.842;6.084;2022-10-31T14:17:33;14.52;;;4.70;;
66143;SDS011;52947;50.842;6.084;2022-10-31T14:20:22;12.90;;;4.82;;
66143;SDS011;52947;50.842;6.084;2022-10-31T14:22:53;19.40;;;5.55;;
66143;SDS011;52947;50.842;6.084;2022-10-31T14:25:28;13.10;;;4.63;;
66143;SDS011;52947;50.842;6.084;2022-10-31T14:27:59;12.95;;;4.90;;
66143;SDS011;52947;50.842;6.084;2022-10-31T14:30:29;14.70;;;5.50;;
66143;SDS011;52947;50.842;6.084;2022-10-31T14:32:59;10.80;;;4.82;;
66143;SDS011;52947;50.842;6.084;2022-10-31T14:35:34;13.25;;;5.00;;
66143;SDS011;52947;50.842;6.084;2022-10-31T14:38:37;16.17;;;5.43;;
66143;SDS011;52947;50.842;6.084;2022-10-31T14:41:21;9.48;;;4.65;;
66143;SDS011;52947;50.842;6.084;2022-10-31T14:44:15;16.33;;;5.13;;
66143;SDS011;52947;50.842;6.084;2022-10-31T14:46:56;11.55;;;4.53;;
66143;SDS011;52947;50.842;6.084;2022-10-31T14:49:36;9.55;;;4.43;;
66143;SDS011;52947;50.842;6.084;2022-10-31T14:52:16;15.85;;;4.85;;
66143;SDS011;52947;50.842;6.084;2022-10-31T14:54:47;11.93;;;4.55;;
66143;SDS011;52947;50.842;6.084;2022-10-31T14:57:20;13.25;;;4.95;;
66143;SDS011;52947;50.842;6.084;2022-10-31T14:59:50;11.15;;;4.90;;
66143;SDS011;52947;50.842;6.084;2022-10-31T15:02:28;10.30;;;4.63;;
66143;SDS011;52947;50.842;6.084;2022-10-31T15:05:05;16.30;;;5.80;;
66143;SDS011;52947;50.842;6.084;2022-10-31T15:07:36;12.88;;;4.20;;
66143;SDS011;52947;50.842;6.084;2022-10-31T15:10:19;11.52;;;4.35;;
66143;SDS011;52947;50.842;6.084;2022-10-31T15:12:49;16.20;;;5.35;;
66143;SDS011;52947;50.842;6.084;2022-10-31T15:15:19;15.15;;;5.03;;
66143;SDS011;52947;50.842;6.084;2022-10-31T15:17:49;13.07;;;5.30;;
66143;SDS011;52947;50.842;6.084;2022-10-31T15:20:20;8.80;;;4.30;;
66143;SDS011;52947;50.842;6.084;2022-10-31T15:22:51;22.77;;;6.35;;
66143;SDS011;52947;50.842;6.084;2022-10-31T15:25:22;17.05;;;7.07;;
66143;SDS011;52947;50.842;6.084;2022-10-31T15:27:52;13.90;;;6.63;;
66143;SDS011;52947;50.842;6.084;2022-10-31T15:30:20;14.05;;;5.60;;
66143;SDS011;52947;50.842;6.084;2022-10-31T15:32:50;15.70;;;5.70;;
66143;SDS011;52947;50.842;6.084;2022-10-31T15:35:26;15.38;;;4.78;;
66143;SDS011;52947;50.842;6.084;2022-10-31T15:37:57;11.75;;;5.18;;
66143;SDS011;52947;50.842;6.084;2022-10-31T15:40:27;12.95;;;5.18;;
66143;SDS011;52947;50.842;6.084;2022-10-31T15:42:56;9.68;;;4.80;;